Dover, Kentucky
Current Conditions -  °F | °C
As of 12:15 PM on Sunday 23 Nov 2014 (Local Time) from KFGX Reporting Station
Overcast Overcast  
Wind Chill: 60°   Ceiling: 6000
Heat Index: 60°   Visibility: 10mi
Dew Point: 43°   Wind: 8mph
Humidity: 53%   Direction: 130°SE
Pressure: 29.86"   Gusts: NA
Location:  38.76°N, 83.88°W
Report Text: KFGX 231715Z AUTO 13007KT 10SM BKN060 OVC070 16/06 A2986 RMK AO2 T01570061
Loading
Personal Weather Stations






























Interactive Weather Map New forecast layout! Learn more

10-Day Weather Forecast

Advertisements
Track Severe Weather on mobile